Time;durP1;ratioP1;P1;durP2;ratioP2;P2;SDS_P1;SDS_P2;PMS_P1;PMS_P2;Temp;Humidity;BMP_temperature;BMP_pressure;BME280_temperature;BME280_humidity;BME280_pressure;Samples;Min_cycle;Max_cycle;Signal;HPM_P1;HPM_P2
2022/10/02 00:01:18;;;;;;;11.10;3.53;;;14.30;99.90;;;;;;5036233;28;20041;-63
2022/10/02 00:03:45;;;;;;;14.43;4.28;;;14.30;99.90;;;;;;5052454;28;20469;-62
2022/10/02 00:06:17;;;;;;;16.60;4.22;;;14.30;99.90;;;;;;5052023;28;20064;-62
2022/10/02 00:08:44;;;;;;;15.45;3.65;;;14.30;99.90;;;;;;5051424;28;20057;-63
2022/10/02 00:11:23;;;;;;;15.27;4.95;;;14.30;99.90;;;;;;5052759;28;20056;-63
2022/10/02 00:13:55;;;;;;;10.88;3.03;;;14.30;99.90;;;;;;5053076;28;20079;-63
2022/10/02 00:16:35;;;;;;;10.98;4.03;;;14.30;99.90;;;;;;5052725;28;20099;-63
2022/10/02 00:19:02;;;;;;;12.60;3.88;;;14.30;99.90;;;;;;5036649;28;20472;-63
2022/10/02 00:21:37;;;;;;;16.42;3.60;;;14.30;99.90;;;;;;5051713;28;20481;-62
2022/10/02 00:24:08;;;;;;;10.98;3.53;;;14.30;99.90;;;;;;5052552;28;20090;-63
2022/10/02 00:26:39;;;;;;;14.05;3.92;;;14.30;99.90;;;;;;5052166;28;20495;-64
2022/10/02 00:29:15;;;;;;;12.77;3.95;;;14.30;99.90;;;;;;5052328;28;20048;-63
2022/10/02 00:31:52;;;;;;;18.80;3.67;;;14.30;99.90;;;;;;5052883;28;20542;-63
2022/10/02 00:34:34;;;;;;;24.33;5.15;;;14.30;99.90;;;;;;5052105;28;20465;-62
2022/10/02 00:37:07;;;;;;;14.48;3.75;;;14.30;99.90;;;;;;5051575;28;20053;-63
2022/10/02 00:39:52;;;;;;;17.40;4.00;;;14.30;99.90;;;;;;5052297;28;20041;-63
2022/10/02 00:42:37;;;;;;;16.05;5.00;;;14.20;99.90;;;;;;5051406;28;20178;-63
2022/10/02 00:45:27;;;;;;;10.00;4.43;;;14.20;99.90;;;;;;5053231;28;20049;-63
2022/10/02 00:48:14;;;;;;;11.98;3.88;;;14.20;99.90;;;;;;5049441;28;20549;-63
2022/10/02 00:50:48;;;;;;;13.30;3.72;;;14.20;99.90;;;;;;5052611;28;20097;-63
2022/10/02 00:53:27;;;;;;;13.70;3.88;;;14.20;99.90;;;;;;5051350;28;20425;-62
2022/10/02 00:56:03;;;;;;;17.98;4.80;;;14.10;99.90;;;;;;5051941;28;20041;-63
2022/10/02 00:58:42;;;;;;;12.07;4.32;;;14.10;99.90;;;;;;5052217;28;20493;-63
2022/10/02 01:01:14;;;;;;;;;;;14.10;99.90;;;;;;5051834;28;20102;-63
2022/10/02 01:03:43;;;;;;;11.68;3.60;;;14.10;99.90;;;;;;5049625;28;19920;-63
2022/10/02 01:06:10;;;;;;;13.83;3.90;;;14.10;99.90;;;;;;5051582;28;20057;-63
2022/10/02 01:08:37;;;;;;;13.13;3.17;;;14.10;99.90;;;;;;5051389;28;20473;-63
2022/10/02 01:11:04;;;;;;;13.30;3.90;;;14.10;99.90;;;;;;5051625;28;20081;-63
2022/10/02 01:13:31;;;;;;;15.00;4.55;;;14.10;99.90;;;;;;5051196;28;20041;-63
2022/10/02 01:16:01;;;;;;;15.90;4.07;;;14.10;99.90;;;;;;5034905;28;20110;-63
2022/10/02 01:18:29;;;;;;;15.50;5.53;;;14.10;99.90;;;;;;5052491;28;20048;-63
2022/10/02 01:21:02;;;;;;;13.18;3.20;;;14.10;99.90;;;;;;5051156;28;20040;-63
2022/10/02 01:23:29;;;;;;;14.68;4.13;;;14.10;99.90;;;;;;5019119;28;20044;-63
2022/10/02 01:25:57;;;;;;;10.43;3.00;;;14.10;99.90;;;;;;5052992;28;20049;-63
2022/10/02 01:28:24;;;;;;;15.98;4.57;;;14.10;99.90;;;;;;5030082;28;20037;-63
2022/10/02 01:30:53;;;;;;;11.30;3.50;;;14.10;99.90;;;;;;5034934;28;20068;-63
2022/10/02 01:33:19;;;;;;;17.77;4.85;;;14.10;99.90;;;;;;5036203;28;20489;-64
2022/10/02 01:35:46;;;;;;;10.48;3.58;;;14.10;99.90;;;;;;5028485;28;20114;-62
2022/10/02 01:38:17;;;;;;;12.57;3.92;;;14.10;99.90;;;;;;5050673;28;20476;-62
2022/10/02 01:40:44;;;;;;;13.63;4.13;;;14.10;99.90;;;;;;5050904;28;20487;-63
2022/10/02 01:43:22;;;;;;;20.13;4.40;;;14.10;99.90;;;;;;5051979;28;20287;-63
2022/10/02 01:46:07;;;;;;;12.95;3.13;;;14.10;99.90;;;;;;5036253;28;20045;-63
2022/10/02 01:48:54;;;;;;;11.07;3.33;;;14.10;99.90;;;;;;5051252;28;20493;-63
2022/10/02 01:51:52;;;;;;;7.65;3.25;;;14.10;99.90;;;;;;5049733;28;20079;-63
2022/10/02 01:54:19;;;;;;;10.02;4.22;;;14.10;99.90;;;;;;5051042;28;20045;-64
2022/10/02 01:56:46;;;;;;;11.43;3.78;;;14.10;99.90;;;;;;5052143;28;20407;-63
2022/10/02 01:59:26;;;;;;;13.68;3.83;;;14.10;99.90;;;;;;5047301;28;20077;-63
2022/10/02 02:02:03;;;;;;;11.15;3.20;;;14.10;99.90;;;;;;5050620;28;20045;-63
2022/10/02 02:04:53;;;;;;;13.77;3.15;;;14.10;99.90;;;;;;5050110;28;20037;-63
2022/10/02 02:07:38;;;;;;;9.75;3.38;;;14.10;99.90;;;;;;5056575;28;20041;-63
2022/10/02 02:10:25;;;;;;;9.57;3.13;;;14.10;99.90;;;;;;5051140;28;20056;-63
2022/10/02 02:13:01;;;;;;;7.35;2.78;;;14.20;99.90;;;;;;5033888;28;20040;-64
2022/10/02 02:15:49;;;;;;;11.98;3.97;;;14.10;99.90;;;;;;5051701;28;20037;-63
2022/10/02 02:18:47;;;;;;;16.77;3.38;;;14.20;99.90;;;;;;5054058;28;20491;-63
2022/10/02 02:21:29;;;;;;;12.63;3.42;;;14.20;99.90;;;;;;5055188;28;20077;-63
2022/10/02 02:23:57;;;;;;;16.13;3.67;;;14.20;99.90;;;;;;5054462;28;20098;-63
2022/10/02 02:26:24;;;;;;;12.57;3.45;;;14.20;99.90;;;;;;5053718;28;20048;-63
2022/10/02 02:28:53;;;;;;;13.23;3.05;;;14.20;99.90;;;;;;5055846;28;20045;-66
2022/10/02 02:31:22;;;;;;;11.13;3.63;;;14.20;99.90;;;;;;5054133;28;20072;-64
2022/10/02 02:33:52;;;;;;;9.10;4.35;;;14.20;99.90;;;;;;5037609;28;20124;-64
2022/10/02 02:36:20;;;;;;;15.05;4.18;;;14.20;99.90;;;;;;5034477;28;20050;-65
2022/10/02 02:38:53;;;;;;;10.55;3.40;;;14.20;99.90;;;;;;5054455;28;20464;-61
2022/10/02 02:41:28;;;;;;;15.82;3.65;;;14.20;99.90;;;;;;5061501;28;20040;-65
2022/10/02 02:44:11;;;;;;;63.60;48.17;;;14.30;99.90;;;;;;5065112;28;20041;-64
2022/10/02 02:47:05;;;;;;;21.98;15.07;;;14.30;99.90;;;;;;5062688;28;20103;-68
2022/10/02 02:49:43;;;;;;;40.72;32.20;;;14.30;99.90;;;;;;5043231;28;20084;-69
2022/10/02 02:52:14;;;;;;;22.67;15.00;;;14.40;99.90;;;;;;5029832;28;20489;-65
2022/10/02 02:55:06;;;;;;;19.67;6.13;;;14.40;99.90;;;;;;5037238;28;20449;-70
2022/10/02 02:57:40;;;;;;;10.63;4.20;;;14.40;99.90;;;;;;5048730;28;20045;-68
2022/10/02 03:00:07;;;;;;;10.57;3.42;;;14.30;99.90;;;;;;5059171;28;20095;-65
2022/10/02 03:02:34;;;;;;;247.35;206.48;;;14.30;99.90;;;;;;5054246;28;20125;-52
2022/10/02 03:05:01;;;;;;;217.63;193.60;;;14.30;99.90;;;;;;5062550;28;20040;-64
2022/10/02 03:07:28;;;;;;;154.73;139.95;;;14.30;99.90;;;;;;5054349;28;20439;-65
2022/10/02 03:10:11;;;;;;;33.20;25.70;;;14.30;99.90;;;;;;5060133;28;20835;-65
2022/10/02 03:13:16;;;;;;;19.50;8.48;;;14.30;99.90;;;;;;5055018;28;20037;-65
2022/10/02 03:16:05;;;;;;;12.55;3.97;;;14.30;99.90;;;;;;5038470;28;20477;-65
2022/10/02 03:19:17;;;;;;;11.43;3.25;;;14.20;99.90;;;;;;5037193;28;20484;-65
2022/10/02 03:21:59;;;;;;;10.55;3.67;;;14.20;99.90;;;;;;5051307;28;20041;-65
2022/10/02 03:24:27;;;;;;;8.00;3.13;;;14.20;99.90;;;;;;5052008;28;20362;-65
2022/10/02 03:27:38;;;;;;;13.73;3.65;;;14.20;99.90;;;;;;5051809;28;20098;-65
2022/10/02 03:30:10;;;;;;;15.93;3.45;;;14.20;99.90;;;;;;5013492;28;20073;-65
2022/10/02 03:32:38;;;;;;;12.98;3.65;;;14.20;99.90;;;;;;4978395;28;20445;-64
2022/10/02 03:35:06;;;;;;;18.08;4.47;;;14.20;99.90;;;;;;5007073;28;20045;-65
2022/10/02 03:37:32;;;;;;;11.30;3.35;;;14.20;99.90;;;;;;5028203;28;20076;-65
2022/10/02 03:39:59;;;;;;;9.35;3.30;;;14.20;99.90;;;;;;5025687;28;20144;-65
2022/10/02 03:42:29;;;;;;;9.52;2.88;;;14.20;99.90;;;;;;5052604;28;20041;-65
2022/10/02 03:44:56;;;;;;;;;;;14.20;99.90;;;;;;5054051;28;20049;-65
2022/10/02 03:47:22;;;;;;;8.57;2.47;;;14.20;99.90;;;;;;5052211;28;19936;-64
2022/10/02 03:49:49;;;;;;;8.25;3.17;;;14.20;99.90;;;;;;5035678;28;20064;-65
2022/10/02 03:52:18;;;;;;;10.50;3.20;;;14.20;99.90;;;;;;5030593;28;20099;-65
2022/10/02 03:54:45;;;;;;;8.30;2.93;;;14.20;99.90;;;;;;5052768;28;20045;-65
2022/10/02 03:57:17;;;;;;;13.15;2.95;;;14.20;99.90;;;;;;5061349;28;20320;-65
2022/10/02 03:59:53;;;;;;;11.05;3.05;;;14.20;99.90;;;;;;5035728;28;20068;-65
2022/10/02 04:02:33;;;;;;;11.38;4.35;;;14.20;99.90;;;;;;5041036;28;20060;-65
2022/10/02 04:05:19;;;;;;;9.70;3.13;;;14.20;99.90;;;;;;5052109;28;20366;-65
2022/10/02 04:07:48;;;;;;;11.80;2.78;;;14.20;99.90;;;;;;5058377;28;20040;-64
2022/10/02 04:10:29;;;;;;;8.40;3.40;;;14.10;99.90;;;;;;5059556;28;20056;-65
2022/10/02 04:13:10;;;;;;;9.27;2.70;;;14.20;99.90;;;;;;5045010;28;20041;-65
2022/10/02 04:15:44;;;;;;;7.50;2.95;;;14.20;99.90;;;;;;5035875;28;20077;-65
2022/10/02 04:18:25;;;;;;;6.93;2.60;;;14.20;99.90;;;;;;5054613;28;20045;-65
2022/10/02 04:21:23;;;;;;;5.70;2.35;;;14.20;99.90;;;;;;5051789;28;20071;-65
2022/10/02 04:23:52;;;;;;;15.10;2.97;;;14.20;99.90;;;;;;5025795;28;20053;-64
2022/10/02 04:26:19;;;;;;;;;;;14.20;99.90;;;;;;5036304;28;20059;-64
2022/10/02 04:28:53;;;;;;;6.30;2.50;;;14.20;99.90;;;;;;5053480;28;19916;-64
2022/10/02 04:31:20;;;;;;;10.32;2.58;;;14.20;99.90;;;;;;5037730;28;20040;-65
2022/10/02 04:33:46;;;;;;;10.38;2.75;;;14.20;99.90;;;;;;5051917;28;20041;-65
2022/10/02 04:36:29;;;;;;;9.80;2.42;;;14.20;99.90;;;;;;5051393;28;20037;-65
2022/10/02 04:39:47;;;;;;;10.23;2.47;;;14.20;99.90;;;;;;5058465;28;20136;-64
2022/10/02 04:42:23;;;;;;;84.25;74.47;;;14.20;99.90;;;;;;5042208;28;20041;-64
2022/10/02 04:45:16;;;;;;;40.40;22.85;;;14.20;99.90;;;;;;5014082;28;20049;-64
2022/10/02 04:48:06;;;;;;;10.23;5.43;;;14.20;99.90;;;;;;5038280;28;20044;-64
2022/10/02 04:50:33;;;;;;;10.70;5.03;;;14.20;99.90;;;;;;5056303;28;20431;-65
2022/10/02 04:53:12;;;;;;;12.90;2.95;;;14.20;99.90;;;;;;5049691;28;20067;-65
2022/10/02 04:56:01;;;;;;;13.88;3.72;;;14.20;99.90;;;;;;5067757;28;20429;-65
2022/10/02 04:58:56;;;;;;;13.32;2.90;;;14.20;99.90;;;;;;5046544;28;20094;-65
2022/10/02 05:01:38;;;;;;;10.20;2.97;;;14.20;99.90;;;;;;5049618;28;20437;-65
2022/10/02 05:04:13;;;;;;;12.68;4.13;;;14.10;99.90;;;;;;5059301;28;20421;-65
2022/10/02 05:06:43;;;;;;;11.88;3.15;;;14.20;99.90;;;;;;5051148;28;20476;-64
2022/10/02 05:09:30;;;;;;;8.80;2.97;;;14.20;99.90;;;;;;5057192;28;20384;-65
2022/10/02 05:11:57;;;;;;;6.80;2.35;;;14.20;99.90;;;;;;5028325;28;20099;-64
2022/10/02 05:14:30;;;;;;;9.82;2.90;;;14.10;99.90;;;;;;5059323;28;20415;-64
2022/10/02 05:17:05;;;;;;;9.13;3.03;;;14.10;99.90;;;;;;5050416;28;20431;-64
2022/10/02 05:19:39;;;;;;;13.40;3.05;;;14.20;99.90;;;;;;5038335;28;20060;-64
2022/10/02 05:22:15;;;;;;;11.45;3.50;;;14.10;99.90;;;;;;5054586;28;20045;-64
2022/10/02 05:25:00;;;;;;;9.13;2.85;;;14.10;99.90;;;;;;5047608;28;20091;-64
2022/10/02 05:28:06;;;;;;;7.70;2.22;;;14.10;99.90;;;;;;5046262;28;20389;-64
2022/10/02 05:31:02;;;;;;;6.18;2.63;;;14.10;99.90;;;;;;5046606;28;20044;-64
2022/10/02 05:34:08;;;;;;;12.57;3.40;;;14.10;99.90;;;;;;5049835;28;20123;-64
2022/10/02 05:36:53;;;;;;;10.10;3.08;;;14.10;99.90;;;;;;5021955;28;20093;-64
2022/10/02 05:39:33;;;;;;;8.65;2.83;;;14.10;99.90;;;;;;5057490;28;20140;-64
2022/10/02 05:42:12;;;;;;;9.40;3.00;;;14.10;99.90;;;;;;5051649;28;20057;-64
2022/10/02 05:44:42;;;;;;;11.90;4.25;;;14.10;99.90;;;;;;5043810;28;20468;-64
2022/10/02 05:47:08;;;;;;;8.13;3.13;;;14.10;99.90;;;;;;5034083;28;20077;-64
2022/10/02 05:49:39;;;;;;;9.45;2.47;;;14.10;99.90;;;;;;5051529;28;20380;-64
2022/10/02 05:52:18;;;;;;;9.23;2.83;;;14.10;99.90;;;;;;5050123;28;20032;-64
2022/10/02 05:54:57;;;;;;;11.45;3.63;;;14.10;99.90;;;;;;5057966;28;20045;-64
2022/10/02 05:57:50;;;;;;;11.93;3.20;;;14.10;99.90;;;;;;5034768;28;20426;-64
2022/10/02 06:00:41;;;;;;;14.68;3.58;;;14.10;99.90;;;;;;5051256;28;20062;-64
2022/10/02 06:03:37;;;;;;;7.43;2.90;;;14.10;99.90;;;;;;5051680;28;20064;-64
2022/10/02 06:06:14;;;;;;;7.47;2.13;;;14.10;99.90;;;;;;5029410;28;20049;-64
2022/10/02 06:08:59;;;;;;;15.60;3.55;;;14.10;99.90;;;;;;5059389;28;20546;-64
2022/10/02 06:11:32;;;;;;;7.35;2.38;;;14.00;99.90;;;;;;5050300;28;20040;-64
2022/10/02 06:14:33;;;;;;;8.60;2.78;;;14.00;99.90;;;;;;5049913;28;20098;-64
2022/10/02 06:17:08;;;;;;;10.43;2.75;;;14.00;99.90;;;;;;5045633;28;20538;-64
2022/10/02 06:20:09;;;;;;;6.95;2.90;;;14.00;99.90;;;;;;5055439;28;20114;-65
2022/10/02 06:22:42;;;;;;;9.27;3.40;;;14.00;99.90;;;;;;5055643;28;20047;-64
2022/10/02 06:25:28;;;;;;;13.88;2.88;;;14.00;99.90;;;;;;5057426;28;20049;-65
2022/10/02 06:28:22;;;;;;;11.20;3.17;;;14.00;99.90;;;;;;5044473;28;20110;-64
2022/10/02 06:30:59;;;;;;;10.80;3.50;;;14.00;99.90;;;;;;5035175;28;20055;-64
2022/10/02 06:33:28;;;;;;;8.13;2.53;;;14.10;99.90;;;;;;5032098;28;20048;-64
2022/10/02 06:36:01;;;;;;;10.23;2.53;;;14.10;99.90;;;;;;5053672;28;20045;-65
2022/10/02 06:38:49;;;;;;;12.77;3.03;;;14.10;99.90;;;;;;5050996;28;20488;-65
2022/10/02 06:41:23;;;;;;;13.40;3.05;;;14.10;99.90;;;;;;5044403;28;20048;-65
2022/10/02 06:44:02;;;;;;;9.38;2.63;;;14.10;99.90;;;;;;5053555;28;20044;-65
2022/10/02 06:47:05;;;;;;;11.65;2.85;;;14.10;99.90;;;;;;5050697;28;20048;-64
2022/10/02 06:49:35;;;;;;;11.02;3.80;;;14.10;99.90;;;;;;5034486;28;20111;-65
2022/10/02 06:52:11;;;;;;;11.43;3.42;;;14.10;99.90;;;;;;5049049;28;20075;-65
2022/10/02 06:54:51;;;;;;;8.95;2.83;;;14.10;99.90;;;;;;5052073;28;20496;-65
2022/10/02 06:57:33;;;;;;;;;;;14.10;99.90;;;;;;5057409;28;20052;-65
2022/10/02 07:00:13;;;;;;;8.95;2.70;;;14.10;99.90;;;;;;5052396;28;19917;-65
2022/10/02 07:03:16;;;;;;;10.60;3.15;;;14.10;99.90;;;;;;5042267;28;20384;-64
2022/10/02 07:05:54;;;;;;;8.10;3.15;;;14.10;99.90;;;;;;5038655;28;20485;-64
2022/10/02 07:08:44;;;;;;;14.15;3.67;;;14.10;99.90;;;;;;5049553;28;20037;-64
2022/10/02 07:11:27;;;;;;;11.80;3.63;;;14.20;99.90;;;;;;5053955;28;20045;-65
2022/10/02 07:14:03;;;;;;;11.07;3.30;;;14.20;99.90;;;;;;5039684;28;20045;-65
2022/10/02 07:16:32;;;;;;;11.45;3.35;;;14.10;99.90;;;;;;5058959;28;20049;-65
2022/10/02 07:19:03;;;;;;;11.15;3.63;;;14.20;99.90;;;;;;5054980;28;20049;-65
2022/10/02 07:21:50;;;;;;;8.88;3.28;;;14.20;99.90;;;;;;5057098;28;20041;-65
2022/10/02 07:24:26;;;;;;;11.77;3.08;;;14.20;99.90;;;;;;5037622;28;20044;-65
2022/10/02 07:27:14;;;;;;;13.18;3.88;;;14.20;99.90;;;;;;5051622;28;20091;-64
2022/10/02 07:29:55;;;;;;;10.52;3.15;;;14.20;99.90;;;;;;5048169;28;20045;-64
2022/10/02 07:32:42;;;;;;;11.27;3.58;;;14.20;99.90;;;;;;5052145;28;20041;-65
2022/10/02 07:35:37;;;;;;;15.77;3.03;;;14.30;99.90;;;;;;5063630;28;20052;-65
2022/10/02 07:38:22;;;;;;;13.77;3.95;;;14.30;99.90;;;;;;5052335;28;20115;-65
2022/10/02 07:41:09;;;;;;;11.48;3.03;;;14.30;99.90;;;;;;5070503;28;20046;-67
2022/10/02 07:43:42;;;;;;;79.82;65.70;;;14.30;99.90;;;;;;5028565;28;20489;-51
2022/10/02 07:46:56;;;;;;;41.28;34.55;;;14.30;99.90;;;;;;5051431;28;20049;-65
2022/10/02 07:49:35;;;;;;;15.55;9.13;;;14.40;99.90;;;;;;5058084;28;20751;-65
2022/10/02 07:52:16;;;;;;;11.90;5.22;;;14.40;99.90;;;;;;5053230;28;20049;-64
2022/10/02 07:54:43;;;;;;;11.82;4.35;;;14.40;99.90;;;;;;5050976;28;20052;-65
2022/10/02 07:57:31;;;;;;;12.77;4.43;;;14.40;99.90;;;;;;5053849;28;20049;-65
2022/10/02 08:00:05;;;;;;;7.82;3.45;;;14.50;99.90;;;;;;5041175;28;20048;-64
2022/10/02 08:02:47;;;;;;;10.45;4.20;;;14.50;99.90;;;;;;5033573;28;20049;-64
2022/10/02 08:05:53;;;;;;;12.70;4.03;;;14.50;99.90;;;;;;5051457;28;20084;-65
2022/10/02 08:08:38;;;;;;;10.18;3.60;;;14.50;99.90;;;;;;5037515;28;20049;-65
2022/10/02 08:11:29;;;;;;;8.73;2.80;;;14.50;99.90;;;;;;5049615;28;20056;-65
2022/10/02 08:14:14;;;;;;;10.20;3.65;;;14.60;99.90;;;;;;5036642;28;20071;-64
2022/10/02 08:16:45;;;;;;;9.60;3.25;;;14.60;99.90;;;;;;5040171;28;20472;-64
2022/10/02 08:19:15;;;;;;;11.50;3.50;;;14.60;99.90;;;;;;5036223;28;20068;-65
2022/10/02 08:21:45;;;;;;;10.80;3.10;;;14.60;99.90;;;;;;5040043;28;20040;-65
2022/10/02 08:24:13;;;;;;;12.07;3.88;;;14.60;99.90;;;;;;5027090;28;20045;-65
2022/10/02 08:26:48;;;;;;;11.00;3.95;;;14.60;99.90;;;;;;5056873;28;20044;-64
2022/10/02 08:29:33;;;;;;;10.57;3.78;;;14.60;99.90;;;;;;5051373;28;20037;-65
2022/10/02 08:32:00;;;;;;;10.32;3.10;;;14.70;99.90;;;;;;5040718;28;20076;-65
2022/10/02 08:34:27;;;;;;;11.00;3.53;;;14.60;99.90;;;;;;5051180;28;20037;-65
2022/10/02 08:37:35;;;;;;;9.98;3.05;;;14.70;99.90;;;;;;5017906;28;20048;-65
2022/10/02 08:40:33;;;;;;;10.50;3.38;;;14.70;99.90;;;;;;5048553;28;20090;-65
2022/10/02 08:43:18;;;;;;;14.90;4.20;;;14.80;99.90;;;;;;5051802;28;20110;-65
2022/10/02 08:46:22;;;;;;;8.00;3.55;;;14.80;99.90;;;;;;5047992;28;20059;-65
2022/10/02 08:49:29;;;;;;;13.55;4.18;;;14.80;99.90;;;;;;4999610;28;20055;-65
2022/10/02 08:52:41;;;;;;;7.22;2.80;;;14.80;99.90;;;;;;5040810;28;20554;-65
2022/10/02 08:55:20;;;;;;;10.25;3.88;;;14.90;99.90;;;;;;5053871;28;20473;-65
2022/10/02 08:58:13;;;;;;;12.93;4.13;;;14.90;99.90;;;;;;5029129;28;20037;-65
2022/10/02 09:00:57;;;;;;;10.20;3.22;;;14.90;99.90;;;;;;5050237;28;20068;-64
2022/10/02 09:03:50;;;;;;;9.10;4.13;;;15.00;99.90;;;;;;5052583;28;20048;-64
2022/10/02 09:06:37;;;;;;;8.75;3.40;;;15.10;99.90;;;;;;5034931;28;20041;-65
2022/10/02 09:09:45;;;;;;;10.38;3.85;;;15.10;99.90;;;;;;5050950;28;20476;-64
2022/10/02 09:12:12;;;;;;;11.43;3.85;;;15.30;99.90;;;;;;5003638;28;20088;-65
2022/10/02 09:14:51;;;;;;;12.10;3.90;;;15.40;99.90;;;;;;5042551;28;20102;-64
2022/10/02 09:18:14;;;;;;;11.65;3.95;;;15.50;99.90;;;;;;5021213;28;20432;-65
2022/10/02 09:21:00;;;;;;;11.15;3.33;;;15.50;99.90;;;;;;5030054;28;20080;-65
2022/10/02 09:24:01;;;;;;;15.48;3.60;;;15.50;99.90;;;;;;5050103;28;20473;-65
2022/10/02 09:26:46;;;;;;;13.60;4.43;;;15.60;99.90;;;;;;5049918;28;20179;-66
2022/10/02 09:29:37;;;;;;;10.30;3.25;;;15.70;99.90;;;;;;5051921;28;20136;-65
2022/10/02 09:32:57;;;;;;;15.15;3.85;;;15.70;99.90;;;;;;5045855;28;20476;-65
2022/10/02 09:35:48;;;;;;;8.43;4.07;;;15.70;99.90;;;;;;5049868;28;20045;-65
2022/10/02 09:38:44;;;;;;;10.85;3.47;;;15.70;99.90;;;;;;5049637;28;20060;-64
2022/10/02 09:41:37;;;;;;;13.32;4.22;;;15.80;99.90;;;;;;5043515;28;20064;-65
2022/10/02 09:44:23;;;;;;;12.95;3.95;;;15.90;99.90;;;;;;5047327;28;20052;-64
2022/10/02 09:47:28;;;;;;;9.00;3.85;;;15.90;99.90;;;;;;5051104;28;20082;-65
2022/10/02 09:50:06;;;;;;;11.60;4.40;;;16.00;99.90;;;;;;5041524;28;20102;-65
2022/10/02 09:52:39;;;;;;;14.40;4.13;;;15.90;99.90;;;;;;5051682;28;20075;-66
2022/10/02 09:55:20;;;;;;;14.63;4.15;;;16.00;99.90;;;;;;5050123;28;20037;-65
2022/10/02 09:58:35;;;;;;;10.93;3.50;;;16.00;99.90;;;;;;5034738;28;20813;-65
2022/10/02 10:01:08;;;;;;;16.75;4.10;;;16.10;99.90;;;;;;5016875;28;20104;-65
2022/10/02 10:03:47;;;;;;;16.65;4.65;;;16.10;99.90;;;;;;5043777;28;20535;-65
2022/10/02 10:06:44;;;;;;;12.57;3.03;;;16.10;99.90;;;;;;5052804;28;20037;-65
2022/10/02 10:09:58;;;;;;;14.10;4.05;;;16.10;99.90;;;;;;5053915;28;20044;-65
2022/10/02 10:12:53;;;;;;;9.88;3.83;;;16.10;99.90;;;;;;5037378;28;20093;-65
2022/10/02 10:15:32;;;;;;;15.75;5.20;;;16.20;99.90;;;;;;5047699;28;20043;-65
2022/10/02 10:18:18;;;;;;;;;;;16.20;99.90;;;;;;5049591;28;20072;-65
2022/10/02 10:21:20;;;;;;;7.07;2.67;;;16.10;99.90;;;;;;5051500;28;19975;-65
2022/10/02 10:24:33;;;;;;;11.05;3.40;;;16.00;99.90;;;;;;5045445;28;20084;-65
2022/10/02 10:27:28;;;;;;;6.45;3.38;;;16.10;99.90;;;;;;5039616;28;20052;-65
2022/10/02 10:30:15;;;;;;;13.60;2.80;;;16.00;99.90;;;;;;5056403;28;20045;-65
2022/10/02 10:32:53;;;;;;;17.20;4.53;;;16.10;99.90;;;;;;5045754;28;20110;-63
2022/10/02 10:35:37;;;;;;;10.27;3.40;;;16.10;99.90;;;;;;5057249;28;20485;-64
2022/10/02 10:41:09;;;;;;;20.95;12.80;;;16.20;99.90;;;;;;5057511;28;20048;-68
2022/10/02 10:43:58;;;;;;;10.98;4.90;;;16.30;99.90;;;;;;5058612;28;20048;-65
2022/10/02 10:46:30;;;;;;;9.75;2.88;;;16.30;99.90;;;;;;5053665;28;20048;-67
2022/10/02 10:49:22;;;;;;;14.63;4.00;;;16.30;99.90;;;;;;5058923;28;20537;-63
2022/10/02 10:52:17;;;;;;;12.20;3.50;;;16.40;99.90;;;;;;5046848;28;20044;-65
2022/10/02 10:55:06;;;;;;;10.18;3.53;;;16.40;99.90;;;;;;5053287;28;20091;-64
2022/10/02 10:57:54;;;;;;;10.63;2.90;;;16.50;99.90;;;;;;5052353;28;20053;-64
2022/10/02 11:00:25;;;;;;;10.80;3.80;;;16.50;99.90;;;;;;5035706;28;20053;-63
2022/10/02 11:02:53;;;;;;;12.57;2.88;;;16.60;99.90;;;;;;5054125;28;20490;-63
2022/10/02 11:05:39;;;;;;;13.43;4.37;;;16.60;99.90;;;;;;5051050;28;20045;-62
2022/10/02 11:08:23;;;;;;;13.20;3.58;;;16.60;99.90;;;;;;5046915;28;20304;-64
2022/10/02 11:11:16;;;;;;;11.80;3.20;;;16.60;99.90;;;;;;5040182;28;20045;-64
2022/10/02 11:13:55;;;;;;;26.88;18.17;;;16.70;99.90;;;;;;5037212;28;20049;-67
2022/10/02 11:16:58;;;;;;;39.38;24.33;;;16.70;99.90;;;;;;5060279;28;20033;-70
2022/10/02 11:19:43;;;;;;;10.48;4.75;;;16.70;99.90;;;;;;5049922;28;20110;-65
2022/10/02 11:22:16;;;;;;;18.23;4.00;;;16.60;99.90;;;;;;5035356;28;20037;-65
2022/10/02 11:25:00;;;;;;;10.40;3.17;;;16.50;99.90;;;;;;5056766;28;20102;-64
2022/10/02 11:27:50;;;;;;;8.88;4.32;;;16.40;99.90;;;;;;5056098;28;20476;-65
2022/10/02 11:30:52;;;;;;;10.82;3.45;;;16.40;99.90;;;;;;5061744;28;20494;-65
2022/10/02 11:33:57;;;;;;;12.88;2.85;;;16.40;99.90;;;;;;5041911;28;20048;-64
2022/10/02 11:36:42;;;;;;;10.07;2.70;;;16.40;99.90;;;;;;5054579;28;20079;-65
2022/10/02 11:39:18;;;;;;;10.13;3.38;;;16.50;99.90;;;;;;5062883;28;20041;-65
2022/10/02 11:42:07;;;;;;;8.80;2.53;;;16.50;99.90;;;;;;5055376;28;20051;-64
2022/10/02 11:44:38;;;;;;;12.85;3.55;;;16.50;99.90;;;;;;5053909;28;20094;-64
2022/10/02 11:47:06;;;;;;;10.98;3.42;;;16.40;99.90;;;;;;5050670;28;20049;-65
2022/10/02 11:50:24;;;;;;;8.38;3.00;;;16.30;99.90;;;;;;5059571;28;20048;-65
2022/10/02 11:53:36;;;;;;;9.40;3.70;;;16.30;99.90;;;;;;5034157;28;20037;-65
2022/10/02 11:56:13;;;;;;;11.63;3.25;;;16.20;99.90;;;;;;5047664;28;20096;-65
2022/10/02 11:59:18;;;;;;;14.05;3.35;;;16.30;99.90;;;;;;5034860;28;20132;-65
2022/10/02 12:01:53;;;;;;;10.35;3.75;;;16.30;99.90;;;;;;4987462;28;20046;-64
2022/10/02 12:04:32;;;;;;;9.13;3.35;;;16.30;99.90;;;;;;5054982;28;20175;-65
2022/10/02 12:07:20;;;;;;;14.02;4.07;;;16.40;99.90;;;;;;5054541;28;20106;-65
2022/10/02 12:10:05;;;;;;;16.33;3.75;;;16.50;99.90;;;;;;5030998;28;20060;-70
2022/10/02 12:12:58;;;;;;;11.93;4.32;;;16.50;99.90;;;;;;5048851;28;20550;-66
2022/10/02 12:16:03;;;;;;;8.98;3.05;;;16.50;99.90;;;;;;5054319;28;20074;-65
2022/10/02 12:18:35;;;;;;;11.27;2.60;;;16.50;99.90;;;;;;5006885;28;20084;-68
2022/10/02 12:27:02;;;;;;;8.27;2.85;;;16.40;99.90;;;;;;5052538;28;20072;-67
2022/10/02 12:29:48;;;;;;;10.48;3.00;;;16.50;99.90;;;;;;5047951;28;20041;-65
2022/10/02 12:32:52;;;;;;;8.80;2.88;;;16.60;99.90;;;;;;5046080;28;20067;-65
2022/10/02 12:35:45;;;;;;;7.90;2.65;;;16.60;99.90;;;;;;5055351;28;20090;-65
2022/10/02 12:38:15;;;;;;;8.90;2.88;;;16.60;99.90;;;;;;5048326;28;20448;-65
2022/10/02 12:41:09;;;;;;;9.82;3.28;;;16.60;99.90;;;;;;5051208;28;20048;-65
2022/10/02 12:43:54;;;;;;;8.77;2.92;;;16.60;99.90;;;;;;5049194;28;20109;-65
2022/10/02 12:46:51;;;;;;;21.45;14.05;;;16.70;99.90;;;;;;5031241;28;20042;-69
2022/10/02 12:49:49;;;;;;;24.38;15.65;;;16.70;99.90;;;;;;5054494;28;20052;-65
2022/10/02 12:52:29;;;;;;;65.05;51.28;;;16.70;99.90;;;;;;5057881;28;20056;-65
2022/10/02 12:55:17;;;;;;;11.63;5.90;;;16.70;99.90;;;;;;5052354;28;20053;-64
2022/10/02 12:57:59;;;;;;;10.68;3.75;;;16.80;99.90;;;;;;5073066;28;20072;-65
2022/10/02 13:00:50;;;;;;;7.47;3.95;;;16.80;99.90;;;;;;5049323;28;20088;-67
2022/10/02 13:03:39;;;;;;;14.45;3.20;;;16.80;99.90;;;;;;5047275;28;20115;-64
2022/10/02 13:06:45;;;;;;;13.88;3.97;;;16.80;99.90;;;;;;5050559;28;20106;-67
2022/10/02 13:09:29;;;;;;;8.30;3.28;;;16.80;99.90;;;;;;5048644;28;20094;-64
2022/10/02 13:12:17;;;;;;;9.60;3.38;;;16.80;99.90;;;;;;5045586;28;20053;-65
2022/10/02 13:15:03;;;;;;;9.48;3.33;;;16.90;99.90;;;;;;5050901;28;20144;-65
2022/10/02 13:17:50;;;;;;;9.18;2.38;;;16.90;99.90;;;;;;5033685;28;20400;-65
2022/10/02 13:20:38;;;;;;;8.77;2.42;;;16.90;99.90;;;;;;5047312;28;20048;-64
2022/10/02 13:23:21;;;;;;;10.88;2.70;;;16.90;99.90;;;;;;5033838;28;20052;-64
2022/10/02 13:25:48;;;;;;;8.30;2.50;;;16.90;99.90;;;;;;5052457;28;20049;-65
2022/10/02 13:28:24;;;;;;;5.97;2.20;;;16.90;99.90;;;;;;5053650;28;20045;-64
2022/10/02 13:30:56;;;;;;;7.88;2.88;;;16.90;99.90;;;;;;5051506;28;20178;-64
2022/10/02 13:33:53;;;;;;;14.88;3.70;;;17.00;99.90;;;;;;5051328;28;20032;-64
2022/10/02 13:36:55;;;;;;;7.25;2.20;;;17.10;99.90;;;;;;5053193;28;20373;-65
2022/10/02 13:39:21;;;;;;;5.70;2.63;;;17.10;99.90;;;;;;5053692;28;20041;-64
2022/10/02 13:42:27;;;;;;;29.65;23.15;;;17.20;99.90;;;;;;5051663;28;20091;-65
2022/10/02 13:44:59;;;;;;;8.95;3.15;;;17.30;99.90;;;;;;5049069;28;20045;-65
2022/10/02 13:47:42;;;;;;;6.25;3.45;;;17.40;99.90;;;;;;5046868;28;20122;-68
2022/10/02 13:50:28;;;;;;;10.15;3.55;;;17.50;99.90;;;;;;5051876;28;20059;-66
2022/10/02 13:53:07;;;;;;;11.77;2.80;;;17.50;99.90;;;;;;5053633;28;20568;-65
2022/10/02 13:55:59;;;;;;;7.73;2.70;;;17.60;99.90;;;;;;5056882;28;20135;-65
2022/10/02 13:58:37;;;;;;;10.30;3.20;;;17.60;99.90;;;;;;5038931;28;20290;-68
2022/10/02 14:01:27;;;;;;;7.93;1.98;;;17.50;99.90;;;;;;5051141;28;20091;-65
2022/10/02 14:03:56;;;;;;;;;;;17.50;99.90;;;;;;5054077;28;20036;-65
2022/10/02 14:06:37;;;;;;;9.80;1.88;;;17.50;99.90;;;;;;5050264;28;19939;-64